map of ERS home
ERS - Airport
Location
City:  Windhoek, Khomas, Namibia
Name:Eros Airport
ICAO:FYWE
IATA:ERS

Details
Type:Airport (Aerodrome, Airfield)
Use:Public/Civil
Latitude:2236'44"S (-22.612238)
Longitude:1704'50"E (17.080442)
Datum:WGS 1984
Elevation:5575 ft (1699 m)
Variation:12.09W (WMM2015 magnetic declination)
0.09 annual change
Runways:2
Longest:7381 × 98 ft (2250 × 30 m), paved

Time
Time Zone:UTC+1 (DST+2)

Weather
METAR:FYWE 180600Z VRB02KT CAVOK 24/12 Q1021

Related Locations
Nearby:
Farthest:BKH: 12242 mi / 19702 km
Kekaha [Barking Sands Pacific Missile Range Facility (PMRF) Airport], Kauai, HI, US

Find:

   beyond  
but within

Other Information
Maps:
NOTAMs:
Links:
Sources:

  
  • flag of Namibia
  

Sectional Chart

Flight Planning
at skyvector.com

Satellite Image

Google Maps Satellite view

 

Copyright © 2004-2019 Karl L. Swartz. All rights reserved.
The Great Circle Mapper name and logo are trademarks of the Great Circle Mapper.
All other trademarks mentioned herein belong to their respective owners.
Please see credits for attibutions and further copyright information.

  Follow gcmap on Facebook Follow gcmap on Twitter Follow gcmap on Google+ GCmap on LinkedIn

hCard Microformat

Geo Microformat